createdAt,value
2023-02-27T00:02:19.689Z,-0.92
2023-02-27T00:04:47.479Z,-0.92
2023-02-27T00:07:15.357Z,-0.96
2023-02-27T00:09:43.312Z,-0.95
2023-02-27T00:12:11.948Z,-0.98
2023-02-27T00:14:40.851Z,-1.03
2023-02-27T00:17:10.090Z,-1.03
2023-02-27T00:19:37.829Z,-1.12
2023-02-27T00:22:05.577Z,-1.12
2023-02-27T00:24:33.325Z,-1.14
2023-02-27T00:27:01.056Z,-1.19
2023-02-27T00:29:28.881Z,-1.22
2023-02-27T00:31:56.695Z,-1.26
2023-02-27T00:34:26.097Z,-1.26
2023-02-27T00:36:53.915Z,-1.26
2023-02-27T00:39:22.024Z,-1.32
2023-02-27T00:41:49.807Z,-1.36
2023-02-27T00:44:17.691Z,-1.38
2023-02-27T00:46:45.462Z,-1.37
2023-02-27T00:49:13.855Z,-1.37
2023-02-27T00:51:43.052Z,-1.37
2023-02-27T00:54:10.754Z,-1.44
2023-02-27T00:56:38.461Z,-1.44
2023-02-27T00:59:06.159Z,-1.50
2023-02-27T01:01:33.899Z,-1.54
2023-02-27T01:04:01.762Z,-1.54
2023-02-27T01:06:29.506Z,-1.54
2023-02-27T01:08:58.711Z,-1.56
2023-02-27T01:11:26.836Z,-1.58
2023-02-27T01:13:54.774Z,-1.55
2023-02-27T01:16:22.668Z,-1.59
2023-02-27T01:18:50.362Z,-1.61
2023-02-27T01:21:18.201Z,-1.65
2023-02-27T01:23:45.970Z,-1.63
2023-02-27T01:26:15.022Z,-1.59
2023-02-27T01:28:42.996Z,-1.67
2023-02-27T01:31:10.704Z,-1.73
2023-02-27T01:33:38.417Z,-1.75
2023-02-27T01:36:06.749Z,-1.78
2023-02-27T01:38:34.568Z,-1.76
2023-02-27T01:41:02.700Z,-1.74
2023-02-27T01:43:31.886Z,-1.74
2023-02-27T01:46:00.746Z,-1.75
2023-02-27T01:48:31.832Z,-1.75
2023-02-27T01:51:03.264Z,-1.83
2023-02-27T01:53:33.847Z,-1.84
2023-02-27T01:56:06.668Z,-1.83
2023-02-27T01:58:35.779Z,-1.83
2023-02-27T02:01:03.763Z,-1.81
2023-02-27T02:03:36.881Z,-1.81
2023-02-27T02:06:06.316Z,-1.79
2023-02-27T02:08:37.882Z,-1.82
2023-02-27T02:11:07.399Z,-1.85
2023-02-27T02:13:37.150Z,-1.86
2023-02-27T02:16:23.085Z,-1.93
2023-02-27T02:18:59.932Z,-1.96
2023-02-27T02:22:09.055Z,-1.97
2023-02-27T02:25:11.727Z,-2.02
2023-02-27T02:27:54.878Z,-2.12
2023-02-27T02:30:40.494Z,-2.14
2023-02-27T02:33:49.877Z,-2.11
2023-02-27T02:37:05.476Z,-2.11
2023-02-27T02:40:05.001Z,-2.13
2023-02-27T02:42:37.897Z,-2.13
2023-02-27T02:45:11.793Z,-2.10
2023-02-27T02:47:49.037Z,-2.10
2023-02-27T02:50:26.765Z,-2.06
2023-02-27T02:53:04.857Z,-2.09
2023-02-27T02:55:36.749Z,-2.09
2023-02-27T02:58:11.201Z,-2.12
2023-02-27T03:00:46.640Z,-2.12
2023-02-27T03:03:20.336Z,-2.13
2023-02-27T03:05:55.846Z,-2.10
2023-02-27T03:08:27.928Z,-2.09
2023-02-27T03:10:59.007Z,-2.07
2023-02-27T03:13:32.102Z,-2.10
2023-02-27T03:16:05.869Z,-2.09
2023-02-27T03:18:38.068Z,-2.12
2023-02-27T03:21:11.369Z,-2.12
2023-02-27T03:23:44.664Z,-2.09
2023-02-27T03:26:20.571Z,-2.09
2023-02-27T03:28:56.318Z,-2.11
2023-02-27T03:31:31.936Z,-2.08
2023-02-27T03:34:09.267Z,-2.08
2023-02-27T03:36:46.562Z,-2.11
2023-02-27T03:39:26.230Z,-2.09
2023-02-27T03:42:03.018Z,-2.09
2023-02-27T03:44:37.040Z,-2.10
2023-02-27T03:47:05.024Z,-2.08
2023-02-27T03:49:32.865Z,-2.07
2023-02-27T03:52:00.665Z,-2.12
2023-02-27T03:54:33.827Z,-2.16
2023-02-27T03:57:04.835Z,-2.14
2023-02-27T03:59:33.976Z,-2.14
2023-02-27T04:02:03.843Z,-2.17
2023-02-27T04:04:32.914Z,-2.16
2023-02-27T04:07:25.058Z,-2.15
2023-02-27T04:10:20.287Z,-2.21
2023-02-27T04:13:12.213Z,-2.23
2023-02-27T04:15:54.904Z,-2.19
2023-02-27T04:18:34.595Z,-2.17
2023-02-27T04:21:09.304Z,-2.22
2023-02-27T04:23:41.402Z,-2.25
2023-02-27T04:26:22.113Z,-2.20
2023-02-27T04:29:00.336Z,-2.19
2023-02-27T04:31:34.194Z,-2.17
2023-02-27T04:34:09.304Z,-2.19
2023-02-27T04:36:43.796Z,-2.22
2023-02-27T04:39:18.647Z,-2.24
2023-02-27T04:41:51.312Z,-2.27
2023-02-27T04:44:23.834Z,-2.30
2023-02-27T04:46:54.337Z,-2.31
2023-02-27T04:49:27.854Z,-2.31
2023-02-27T04:52:00.031Z,-2.34
2023-02-27T04:54:33.507Z,-2.36
2023-02-27T04:57:05.634Z,-2.39
2023-02-27T04:59:40.954Z,-2.40
2023-02-27T05:02:14.359Z,-2.33
2023-02-27T05:04:44.844Z,-2.42
2023-02-27T05:07:18.872Z,-2.39
2023-02-27T05:09:50.834Z,-2.45
2023-02-27T05:12:24.020Z,-2.45
2023-02-27T05:14:57.803Z,-2.41
2023-02-27T05:17:32.449Z,-2.45
2023-02-27T05:20:00.880Z,-2.44
2023-02-27T05:22:37.397Z,-2.45
2023-02-27T05:25:13.635Z,-2.44
2023-02-27T05:27:47.321Z,-2.49
2023-02-27T05:30:24.755Z,-2.49
2023-02-27T05:32:57.549Z,-2.50
2023-02-27T05:35:32.557Z,-2.51
2023-02-27T05:38:06.897Z,-2.53
2023-02-27T05:40:37.666Z,-2.51
2023-02-27T05:43:08.582Z,-2.53
2023-02-27T05:45:40.344Z,-2.56
2023-02-27T05:48:11.980Z,-2.59
2023-02-27T05:50:42.048Z,-2.59
2023-02-27T05:53:15.349Z,-2.61
2023-02-27T05:55:48.039Z,-2.61
2023-02-27T05:58:24.788Z,-2.63
2023-02-27T06:00:58.964Z,-2.58
2023-02-27T06:03:28.380Z,-2.57
2023-02-27T06:05:58.781Z,-2.60
2023-02-27T06:08:26.953Z,-2.66
2023-02-27T06:10:55.278Z,-2.67
2023-02-27T06:13:23.690Z,-2.66
2023-02-27T06:15:53.533Z,-2.66
2023-02-27T06:18:21.826Z,-2.68
2023-02-27T06:20:51.111Z,-2.66
2023-02-27T06:23:18.848Z,-2.82
2023-02-27T06:25:47.041Z,-2.87
2023-02-27T06:28:14.728Z,-2.91
2023-02-27T06:30:43.912Z,-2.87
2023-02-27T06:33:14.038Z,-2.88
2023-02-27T06:35:42.031Z,-2.95
2023-02-27T06:38:11.111Z,-2.92
2023-02-27T06:40:41.389Z,-2.84
2023-02-27T06:43:09.394Z,-2.81
2023-02-27T06:45:38.067Z,-2.90
2023-02-27T06:48:06.749Z,-2.83
2023-02-27T06:50:36.014Z,-2.83
2023-02-27T06:53:04.352Z,-2.85
2023-02-27T06:55:32.129Z,-2.86
2023-02-27T06:57:59.908Z,-2.79
2023-02-27T07:00:27.952Z,-2.78
2023-02-27T07:02:55.762Z,-2.76
2023-02-27T07:05:23.538Z,-2.70
2023-02-27T07:07:52.710Z,-2.53
2023-02-27T07:10:20.613Z,-2.48
2023-02-27T07:12:48.725Z,-2.50
2023-02-27T07:15:16.698Z,-2.45
2023-02-27T07:17:44.532Z,-2.40
2023-02-27T07:20:13.380Z,-2.32
2023-02-27T07:22:42.162Z,-2.22
2023-02-27T07:25:11.701Z,-2.17
2023-02-27T07:27:39.694Z,-2.12
2023-02-27T07:30:08.834Z,-2.03
2023-02-27T07:32:36.672Z,-1.98
2023-02-27T07:35:04.756Z,-1.92
2023-02-27T07:37:32.736Z,-1.84
2023-02-27T07:40:00.858Z,-1.70
2023-02-27T07:42:30.034Z,-1.27
2023-02-27T07:44:57.922Z,-0.72
2023-02-27T07:47:25.713Z,-0.46
2023-02-27T07:49:53.857Z,-0.11
2023-02-27T07:52:21.558Z,0.39
2023-02-27T07:54:49.347Z,0.68
2023-02-27T07:57:17.210Z,0.82
2023-02-27T07:59:46.316Z,1.12
2023-02-27T08:02:14.197Z,1.46
2023-02-27T08:04:41.972Z,1.41
2023-02-27T08:07:09.779Z,1.56
2023-02-27T08:09:37.685Z,1.34
2023-02-27T08:12:05.869Z,1.41
2023-02-27T08:14:33.674Z,1.55
2023-02-27T08:17:03.232Z,1.78
2023-02-27T08:19:31.175Z,1.66
2023-02-27T08:21:58.945Z,1.74
2023-02-27T08:24:26.794Z,1.81
2023-02-27T08:26:54.574Z,1.71
2023-02-27T08:29:22.373Z,1.91
2023-02-27T08:31:50.536Z,1.98
2023-02-27T08:34:20.366Z,2.13
2023-02-27T08:36:48.219Z,2.24
2023-02-27T08:39:15.999Z,2.38
2023-02-27T08:41:43.777Z,2.52
2023-02-27T08:44:12.995Z,2.70
2023-02-27T08:46:40.815Z,2.59
2023-02-27T08:49:08.565Z,2.64
2023-02-27T08:51:37.671Z,2.77
2023-02-27T08:54:05.542Z,2.87
2023-02-27T08:56:34.837Z,3.02
2023-02-27T08:59:02.941Z,3.25
2023-02-27T09:01:34.580Z,3.35
2023-02-27T09:04:06.627Z,3.29
2023-02-27T09:06:37.037Z,3.44
2023-02-27T09:09:06.540Z,3.47
2023-02-27T09:11:34.755Z,3.65
2023-02-27T09:14:03.373Z,3.86
2023-02-27T09:16:31.729Z,4.18
2023-02-27T09:18:59.707Z,4.29
2023-02-27T09:21:29.036Z,4.64
2023-02-27T09:24:02.616Z,4.62
2023-02-27T09:26:45.677Z,4.63
2023-02-27T09:29:14.022Z,4.79
2023-02-27T09:31:42.105Z,4.62
2023-02-27T09:34:09.997Z,4.72
2023-02-27T09:36:37.757Z,4.76
2023-02-27T09:39:05.565Z,4.85
2023-02-27T09:41:53.320Z,4.94
2023-02-27T09:44:45.331Z,4.97
2023-02-27T09:47:19.069Z,4.95
2023-02-27T09:49:59.947Z,5.28
2023-02-27T09:52:28.974Z,5.31
2023-02-27T09:54:56.740Z,5.60
2023-02-27T09:57:38.925Z,5.41
2023-02-27T10:00:16.831Z,5.30
2023-02-27T10:02:56.321Z,5.48
2023-02-27T10:05:29.863Z,5.57
2023-02-27T10:08:06.762Z,5.67
2023-02-27T10:10:41.819Z,5.83
2023-02-27T10:13:34.249Z,5.86
2023-02-27T10:16:04.018Z,5.89
2023-02-27T10:18:34.999Z,6.03
2023-02-27T10:21:07.059Z,6.04
2023-02-27T10:23:40.114Z,6.01
2023-02-27T10:26:14.977Z,6.03
2023-02-27T10:28:44.052Z,6.13
2023-02-27T10:31:24.244Z,6.35
2023-02-27T10:33:53.124Z,6.23
2023-02-27T10:36:33.103Z,6.47
2023-02-27T10:39:06.770Z,6.37
2023-02-27T10:41:37.063Z,6.37
2023-02-27T10:44:07.507Z,6.47
2023-02-27T10:46:38.097Z,6.45
2023-02-27T10:49:18.911Z,6.64
2023-02-27T10:51:48.419Z,6.77
2023-02-27T10:54:21.797Z,6.63
2023-02-27T10:56:52.299Z,6.88
2023-02-27T10:59:24.476Z,6.75
2023-02-27T11:01:55.708Z,6.77
2023-02-27T11:04:35.305Z,6.85
2023-02-27T11:07:09.453Z,6.98
2023-02-27T11:09:38.292Z,6.76
2023-02-27T11:12:20.107Z,6.52
2023-02-27T11:14:54.538Z,6.77
2023-02-27T11:17:29.442Z,6.70
2023-02-27T11:19:58.356Z,6.81
2023-02-27T11:22:27.949Z,6.81
2023-02-27T11:25:21.944Z,6.77
2023-02-27T11:27:52.315Z,6.84
2023-02-27T11:30:28.011Z,6.97
2023-02-27T11:32:58.891Z,7.15
2023-02-27T11:35:29.907Z,6.92
2023-02-27T11:38:01.427Z,6.90
2023-02-27T11:40:32.763Z,6.87
2023-02-27T11:43:06.234Z,7.12
2023-02-27T11:46:29.143Z,7.01
2023-02-27T11:48:32.082Z,7.43
2023-02-27T11:51:15.977Z,7.20
2023-02-27T11:54:09.513Z,7.11
2023-02-27T11:56:41.055Z,6.86
2023-02-27T11:59:21.931Z,7.16
2023-02-27T12:01:56.879Z,7.44
2023-02-27T12:04:31.063Z,7.42
2023-02-27T12:07:02.526Z,7.57
2023-02-27T12:09:43.420Z,7.58
2023-02-27T12:12:21.586Z,7.46
2023-02-27T12:15:05.011Z,7.29
2023-02-27T12:17:40.598Z,7.37
2023-02-27T12:20:24.758Z,7.15
2023-02-27T12:22:55.170Z,6.81
2023-02-27T12:25:36.252Z,6.67
2023-02-27T12:28:13.995Z,6.43
2023-02-27T12:30:49.573Z,6.41
2023-02-27T12:33:30.823Z,6.75
2023-02-27T12:36:02.616Z,6.80
2023-02-27T12:38:30.606Z,6.49
2023-02-27T12:41:12.770Z,6.71
2023-02-27T12:43:47.178Z,7.07
2023-02-27T12:46:30.606Z,7.24
2023-02-27T12:49:16.949Z,7.21
2023-02-27T12:51:52.108Z,7.57
2023-02-27T12:54:37.732Z,7.85
2023-02-27T12:57:27.214Z,7.99
2023-02-27T13:00:07.656Z,8.14
2023-02-27T13:02:58.866Z,8.06
2023-02-27T13:05:40.604Z,8.08
2023-02-27T13:08:26.173Z,7.63
2023-02-27T13:11:00.765Z,7.27
2023-02-27T13:13:35.213Z,7.47
2023-02-27T13:16:07.340Z,7.69
2023-02-27T13:18:43.453Z,7.73
2023-02-27T13:21:21.008Z,7.48
2023-02-27T13:23:59.637Z,6.96
2023-02-27T13:26:31.660Z,6.93
2023-02-27T13:29:01.080Z,7.16
2023-02-27T13:31:36.713Z,7.17
2023-02-27T13:34:15.739Z,6.93
2023-02-27T13:36:48.363Z,7.19
2023-02-27T13:39:41.565Z,7.00
2023-02-27T13:42:44.728Z,7.30
2023-02-27T13:45:45.980Z,7.33
2023-02-27T13:48:41.721Z,7.32
2023-02-27T13:51:13.095Z,7.51
2023-02-27T13:53:42.336Z,7.58
2023-02-27T13:56:22.857Z,7.61
2023-02-27T13:58:52.109Z,7.63
2023-02-27T14:01:27.366Z,7.22
2023-02-27T14:03:58.328Z,7.48
2023-02-27T14:06:28.420Z,7.22
2023-02-27T14:09:12.888Z,7.12
2023-02-27T14:11:52.255Z,7.38
2023-02-27T14:14:36.909Z,7.37
2023-02-27T14:17:04.999Z,7.32
2023-02-27T14:19:57.157Z,7.43
2023-02-27T14:23:08.904Z,7.58
2023-02-27T14:25:40.422Z,7.17
2023-02-27T14:28:19.230Z,7.25
2023-02-27T14:30:54.410Z,7.14
2023-02-27T14:33:39.273Z,7.15
2023-02-27T14:36:15.821Z,7.09
2023-02-27T14:38:43.968Z,7.15
2023-02-27T14:41:35.554Z,6.92
2023-02-27T14:44:03.643Z,6.84
2023-02-27T14:46:33.292Z,6.70
2023-02-27T14:49:02.900Z,6.70
2023-02-27T14:51:32.580Z,6.88
2023-02-27T14:54:02.831Z,6.55
2023-02-27T14:56:32.861Z,6.31
2023-02-27T14:59:04.922Z,6.26
2023-02-27T15:01:37.474Z,6.37
2023-02-27T15:04:08.090Z,6.39
2023-02-27T15:06:43.901Z,6.72
2023-02-27T15:09:23.086Z,6.49
2023-02-27T15:12:03.616Z,6.17
2023-02-27T15:14:34.474Z,6.09
2023-02-27T15:17:02.351Z,6.26
2023-02-27T15:19:31.298Z,6.15
2023-02-27T15:22:03.457Z,6.25
2023-02-27T15:24:48.880Z,6.00
2023-02-27T15:27:21.161Z,6.05
2023-02-27T15:29:52.154Z,6.07
2023-02-27T15:32:28.645Z,6.04
2023-02-27T15:34:57.489Z,6.16
2023-02-27T15:37:27.859Z,5.93
2023-02-27T15:39:56.325Z,5.88
2023-02-27T15:42:28.694Z,5.86
2023-02-27T15:44:58.258Z,5.72
2023-02-27T15:47:28.441Z,5.71
2023-02-27T15:50:01.641Z,5.78
2023-02-27T15:52:33.898Z,5.59
2023-02-27T15:55:03.581Z,5.67
2023-02-27T15:57:34.401Z,5.73
2023-02-27T16:00:02.403Z,5.71
2023-02-27T16:02:34.852Z,5.55
2023-02-27T16:05:02.791Z,5.40
2023-02-27T16:07:44.309Z,5.27
2023-02-27T16:10:20.838Z,5.44
2023-02-27T16:12:50.032Z,5.34
2023-02-27T16:15:28.193Z,5.26
2023-02-27T16:17:59.038Z,5.03
2023-02-27T16:20:39.405Z,4.70
2023-02-27T16:23:16.307Z,4.75
2023-02-27T16:26:00.235Z,4.55
2023-02-27T16:28:32.984Z,4.47
2023-02-27T16:31:01.073Z,4.42
2023-02-27T16:33:32.829Z,4.26
2023-02-27T16:36:17.646Z,4.23
2023-02-27T16:38:45.731Z,4.01
2023-02-27T16:41:16.524Z,3.89
2023-02-27T16:43:47.417Z,3.85
2023-02-27T16:46:20.276Z,3.67
2023-02-27T16:48:50.730Z,3.63
2023-02-27T16:51:20.611Z,3.67
2023-02-27T16:53:48.743Z,3.51
2023-02-27T16:56:23.579Z,3.44
2023-02-27T16:58:55.777Z,3.38
2023-02-27T17:01:23.662Z,3.42
2023-02-27T17:03:53.120Z,3.30
2023-02-27T17:06:21.068Z,3.28
2023-02-27T17:08:48.949Z,3.18
2023-02-27T17:11:16.763Z,3.19
2023-02-27T17:13:44.532Z,3.08
2023-02-27T17:16:15.630Z,3.14
2023-02-27T17:18:43.392Z,3.10
2023-02-27T17:21:11.140Z,3.12
2023-02-27T17:23:39.023Z,3.03
2023-02-27T17:26:07.400Z,2.99
2023-02-27T17:28:35.180Z,2.90
2023-02-27T17:31:03.257Z,2.90
2023-02-27T17:33:33.373Z,2.89
2023-02-27T17:36:04.268Z,2.88
2023-02-27T17:38:32.276Z,2.78
2023-02-27T17:41:00.194Z,2.73
2023-02-27T17:43:28.303Z,2.70
2023-02-27T17:45:57.773Z,2.66
2023-02-27T17:48:25.718Z,2.65
2023-02-27T17:50:54.879Z,2.69
2023-02-27T17:53:22.647Z,2.59
2023-02-27T17:55:50.348Z,2.51
2023-02-27T17:58:18.777Z,2.42
2023-02-27T18:00:46.577Z,2.38
2023-02-27T18:03:14.282Z,2.39
2023-02-27T18:05:49.070Z,2.43
2023-02-27T18:08:18.273Z,2.35
2023-02-27T18:10:48.864Z,2.32
2023-02-27T18:13:18.066Z,2.25
2023-02-27T18:15:46.346Z,2.24
2023-02-27T18:18:14.129Z,2.15
2023-02-27T18:20:41.982Z,2.11
2023-02-27T18:23:10.243Z,2.05
2023-02-27T18:25:39.699Z,1.95
2023-02-27T18:28:08.723Z,2.02
2023-02-27T18:30:39.749Z,2.00
2023-02-27T18:33:07.511Z,1.92
2023-02-27T18:35:35.297Z,1.93
2023-02-27T18:38:03.780Z,1.89
2023-02-27T18:40:32.030Z,1.95
2023-02-27T18:43:01.219Z,1.94
2023-02-27T18:45:29.736Z,1.90
2023-02-27T18:47:57.546Z,1.94
2023-02-27T18:50:26.084Z,1.90
2023-02-27T18:52:56.101Z,1.92
2023-02-27T18:55:23.915Z,1.88
2023-02-27T18:57:51.747Z,1.82
2023-02-27T19:00:24.184Z,1.82
2023-02-27T19:02:52.167Z,1.81
2023-02-27T19:05:20.305Z,1.69
2023-02-27T19:07:48.067Z,1.65
2023-02-27T19:10:15.898Z,1.61
2023-02-27T19:12:43.803Z,1.58
2023-02-27T19:15:12.458Z,1.55
2023-02-27T19:17:41.674Z,1.55
2023-02-27T19:20:14.349Z,1.57
2023-02-27T19:22:42.182Z,1.55
2023-02-27T19:25:10.194Z,1.54
2023-02-27T19:27:38.100Z,1.52
2023-02-27T19:30:08.165Z,1.50
2023-02-27T19:32:37.036Z,1.42
2023-02-27T19:35:07.164Z,1.34
2023-02-27T19:37:34.897Z,1.35
2023-02-27T19:40:03.876Z,1.30
2023-02-27T19:42:31.949Z,1.30
2023-02-27T19:44:59.984Z,1.28
2023-02-27T19:47:27.886Z,1.28
2023-02-27T19:49:55.722Z,1.23
2023-02-27T19:52:24.926Z,1.18
2023-02-27T19:54:52.640Z,1.08
2023-02-27T19:57:20.584Z,1.10
2023-02-27T19:59:48.464Z,1.05
2023-02-27T20:02:16.244Z,1.04
2023-02-27T20:04:44.587Z,1.08
2023-02-27T20:07:12.444Z,1.06
2023-02-27T20:09:41.721Z,1.04
2023-02-27T20:12:09.549Z,1.08
2023-02-27T20:14:37.628Z,1.08
2023-02-27T20:17:05.437Z,1.09
2023-02-27T20:19:33.398Z,1.05
2023-02-27T20:22:01.255Z,1.03
2023-02-27T20:24:29.193Z,0.98
2023-02-27T20:26:59.342Z,0.96
2023-02-27T20:29:28.814Z,0.94
2023-02-27T20:31:57.397Z,0.92
2023-02-27T20:34:27.024Z,0.89
2023-02-27T20:36:56.364Z,0.90
2023-02-27T20:39:24.928Z,0.85
2023-02-27T20:41:52.837Z,0.87
2023-02-27T20:44:22.008Z,0.87
2023-02-27T20:46:49.835Z,0.88
2023-02-27T20:49:17.855Z,0.91
2023-02-27T20:51:45.637Z,0.97
2023-02-27T20:54:16.698Z,0.93
2023-02-27T20:56:44.594Z,0.98
2023-02-27T20:59:15.448Z,1.03
2023-02-27T21:01:51.376Z,1.08
2023-02-27T21:04:22.287Z,1.07
2023-02-27T21:06:50.437Z,1.08
2023-02-27T21:09:18.868Z,1.06
2023-02-27T21:11:46.727Z,1.07
2023-02-27T21:14:14.564Z,1.05
2023-02-27T21:16:42.241Z,1.10
2023-02-27T21:19:11.411Z,1.04
2023-02-27T21:21:39.188Z,1.07
2023-02-27T21:24:07.446Z,1.13
2023-02-27T21:26:37.845Z,1.17
2023-02-27T21:29:08.003Z,1.12
2023-02-27T21:31:37.298Z,1.09
2023-02-27T21:34:07.491Z,1.07
2023-02-27T21:36:38.293Z,1.12
2023-02-27T21:39:08.226Z,1.15
2023-02-27T21:41:35.867Z,1.18
2023-02-27T21:44:06.011Z,1.14
2023-02-27T21:46:34.945Z,1.09
2023-02-27T21:49:03.077Z,1.05
2023-02-27T21:51:40.586Z,0.98
2023-02-27T21:54:12.561Z,0.95
2023-02-27T21:56:40.801Z,0.93
2023-02-27T21:59:09.130Z,0.91
2023-02-27T22:01:37.260Z,0.89
2023-02-27T22:04:05.574Z,0.88
2023-02-27T22:06:35.490Z,0.90
2023-02-27T22:09:05.662Z,0.87
2023-02-27T22:11:35.571Z,0.86
2023-02-27T22:14:04.198Z,0.86
2023-02-27T22:16:31.894Z,0.86
2023-02-27T22:18:59.673Z,0.88
2023-02-27T22:21:28.619Z,0.85
2023-02-27T22:23:58.147Z,0.81
2023-02-27T22:26:28.103Z,0.82
2023-02-27T22:28:58.525Z,0.82
2023-02-27T22:31:29.200Z,0.86
2023-02-27T22:34:01.719Z,0.83
2023-02-27T22:36:31.691Z,0.85
2023-02-27T22:39:00.010Z,0.85
2023-02-27T22:41:30.634Z,0.91
2023-02-27T22:44:01.382Z,0.91
2023-02-27T22:46:31.671Z,0.85
2023-02-27T22:49:01.355Z,0.91
2023-02-27T22:51:29.846Z,0.87
2023-02-27T22:53:59.428Z,0.79
2023-02-27T22:56:27.538Z,0.78
2023-02-27T22:58:55.592Z,0.75
2023-02-27T23:01:26.293Z,0.73
2023-02-27T23:03:57.523Z,0.66
2023-02-27T23:06:28.497Z,0.64
2023-02-27T23:08:56.316Z,0.65
2023-02-27T23:11:24.522Z,0.59
2023-02-27T23:13:52.611Z,0.54
2023-02-27T23:16:21.526Z,0.53
2023-02-27T23:18:54.008Z,0.42
2023-02-27T23:21:24.456Z,0.35
2023-02-27T23:23:53.784Z,0.33
2023-02-27T23:26:22.944Z,0.21
2023-02-27T23:28:50.770Z,0.16
2023-02-27T23:31:18.753Z,0.11
2023-02-27T23:33:46.750Z,0.02
2023-02-27T23:36:16.358Z,-0.07
2023-02-27T23:38:46.501Z,-0.13
2023-02-27T23:41:16.764Z,-0.19
2023-02-27T23:43:45.259Z,-0.15
2023-02-27T23:46:15.196Z,-0.17
2023-02-27T23:48:43.686Z,-0.24
2023-02-27T23:51:12.050Z,-0.30
2023-02-27T23:53:42.608Z,-0.33
2023-02-27T23:56:18.113Z,-0.41
2023-02-27T23:58:46.712Z,-0.39
